Time,TemperatureF,DewpointF,PressureIn,WindDirection,WindDirectionDegrees,WindSpeedMPH,WindSpeedGustMPH,Humidity,HourlyPrecipIn,Conditions,Clouds,dailyrainin,SoftwareType,DateUTC
2013-02-24 00:01:00,47.0,16.0,30.26,East,92,3.0,4.0,28,0.00,,,0.00,,2013-02-24 08:01:00,
2013-02-24 00:22:00,48.0,16.0,30.29,West,272,3.0,6.0,27,0.00,,,0.00,,2013-02-24 08:22:00,
2013-02-24 00:31:00,48.0,16.0,30.29,NNE,32,3.0,8.0,27,0.00,,,0.00,,2013-02-24 08:31:00,
2013-02-24 00:41:00,48.0,16.0,30.29,NNE,32,3.0,8.0,27,0.00,,,0.00,,2013-02-24 08:41:00,
2013-02-24 00:53:00,46.0,16.0,30.29,ENE,77,0.0,5.0,30,0.00,,,0.00,,2013-02-24 08:53:00,
2013-02-24 01:01:00,43.0,17.0,30.29,ESE,112,0.0,3.0,34,0.00,,,0.00,,2013-02-24 09:01:00,
2013-02-24 01:21:00,42.0,18.0,30.29,ESE,111,0.0,3.0,37,0.00,,,0.00,,2013-02-24 09:21:00,
2013-02-24 01:31:00,42.0,14.0,30.29,NNW,343,0.0,5.0,32,0.00,,,0.00,,2013-02-24 09:31:00,
2013-02-24 01:41:00,42.0,14.0,30.29,NNW,343,0.0,5.0,32,0.00,,,0.00,,2013-02-24 09:41:00,
2013-02-24 01:51:00,44.0,14.0,30.29,SSW,204,2.0,4.0,29,0.00,,,0.00,,2013-02-24 09:51:00,
2013-02-24 02:01:00,47.0,12.0,30.29,NE,49,0.0,6.0,24,0.00,,,0.00,,2013-02-24 10:01:00,
2013-02-24 02:21:00,47.0,10.0,30.29,WNW,293,3.0,6.0,22,0.00,,,0.00,,2013-02-24 10:21:00,
2013-02-24 02:31:00,48.0,11.0,30.29,WSW,249,3.0,6.0,22,0.00,,,0.00,,2013-02-24 10:31:00,
2013-02-24 02:41:00,48.0,11.0,30.29,WSW,249,3.0,6.0,22,0.00,,,0.00,,2013-02-24 10:41:00,
2013-02-24 02:52:00,48.0,8.0,30.29,NW,315,0.0,5.0,19,0.00,,,0.00,,2013-02-24 10:52:00,
2013-02-24 03:01:00,47.0,7.0,30.26,West,259,0.0,6.0,19,0.00,,,0.00,,2013-02-24 11:01:00,
2013-02-24 03:21:00,46.0,6.0,30.26,East,97,0.0,6.0,19,0.00,,,0.00,,2013-02-24 11:21:00,
2013-02-24 03:31:00,46.0,7.0,30.26,SW,214,2.0,4.0,20,0.00,,,0.00,,2013-02-24 11:31:00,
2013-02-24 03:41:00,46.0,7.0,30.26,SW,214,2.0,4.0,20,0.00,,,0.00,,2013-02-24 11:41:00,
2013-02-24 03:52:00,46.0,7.0,30.26,NW,326,4.0,4.0,20,0.00,,,0.00,,2013-02-24 11:52:00,
2013-02-24 04:01:00,46.0,9.0,30.26,ESE,120,0.0,5.0,22,0.00,,,0.00,,2013-02-24 12:01:00,
2013-02-24 04:21:00,44.0,10.0,30.26,SW,215,0.0,2.0,25,0.00,,,0.00,,2013-02-24 12:21:00,
2013-02-24 04:31:00,42.0,12.0,30.29,SW,215,0.0,0.0,29,0.00,,,0.00,,2013-02-24 12:31:00,
2013-02-24 04:45:00,42.0,12.0,30.29,SW,215,0.0,0.0,29,0.00,,,0.00,,2013-02-24 12:45:00,
2013-02-24 04:55:00,39.0,11.0,30.26,WSW,247,0.0,3.0,31,0.00,,,0.00,,2013-02-24 12:55:00,
2013-02-24 05:06:00,39.0,12.0,30.26,WSW,247,0.0,0.0,33,0.00,,,0.00,,2013-02-24 13:06:00,
2013-02-24 05:23:00,38.0,13.0,30.26,WSW,247,0.0,0.0,36,0.00,,,0.00,,2013-02-24 13:23:00,
2013-02-24 05:32:00,38.0,15.0,30.29,SSW,203,0.0,4.0,38,0.00,,,0.00,,2013-02-24 13:32:00,
2013-02-24 05:54:00,38.0,15.0,30.26,SSW,203,0.0,2.0,38,0.00,,,0.00,,2013-02-24 13:54:00,
2013-02-24 06:01:00,38.0,15.0,30.29,SSW,203,0.0,0.0,38,0.00,,,0.00,,2013-02-24 14:01:00,
2013-02-24 06:11:00,38.0,15.0,30.29,West,260,0.0,0.0,38,0.00,,,0.00,,2013-02-24 14:11:00,
2013-02-24 06:22:00,38.0,15.0,30.29,West,260,0.0,0.0,38,0.00,,,0.00,,2013-02-24 14:22:00,
2013-02-24 06:32:00,38.0,15.0,30.29,West,260,0.0,0.0,39,0.00,,,0.00,,2013-02-24 14:32:00,
2013-02-24 06:42:00,38.0,15.0,30.29,West,260,0.0,0.0,39,0.00,,,0.00,,2013-02-24 14:42:00,
2013-02-24 06:53:00,37.0,15.0,30.29,West,260,0.0,0.0,40,0.00,,,0.00,,2013-02-24 14:53:00,
2013-02-24 07:01:00,37.0,15.0,30.29,West,260,0.0,0.0,40,0.00,,,0.00,,2013-02-24 15:01:00,
2013-02-24 07:11:00,36.0,15.0,30.29,West,261,0.0,0.0,41,0.00,,,0.00,,2013-02-24 15:11:00,
2013-02-24 07:22:00,36.0,15.0,30.29,West,261,0.0,0.0,41,0.00,,,0.00,,2013-02-24 15:22:00,
2013-02-24 07:31:00,36.0,15.0,30.29,West,260,0.0,3.0,41,0.00,,,0.00,,2013-02-24 15:31:00,
2013-02-24 07:41:00,36.0,15.0,30.29,West,260,0.0,3.0,41,0.00,,,0.00,,2013-02-24 15:41:00,
2013-02-24 07:52:00,37.0,17.0,30.29,West,260,0.0,3.0,43,0.00,,,0.00,,2013-02-24 15:52:00,
2013-02-24 08:01:00,38.0,18.0,30.29,West,260,0.0,0.0,43,0.00,,,0.00,,2013-02-24 16:01:00,
2013-02-24 08:11:00,38.0,18.0,30.29,West,260,0.0,0.0,43,0.00,,,0.00,,2013-02-24 16:11:00,
2013-02-24 08:21:00,39.0,19.0,30.29,West,260,0.0,0.0,44,0.00,,,0.00,,2013-02-24 16:21:00,
2013-02-24 08:31:00,42.0,20.0,30.32,NNE,29,0.0,3.0,41,0.00,,,0.00,,2013-02-24 16:31:00,
2013-02-24 08:41:00,42.0,20.0,30.32,NNE,29,0.0,3.0,41,0.00,,,0.00,,2013-02-24 16:41:00,
2013-02-24 08:52:00,44.0,19.0,30.32,ENE,71,0.0,0.0,37,0.00,,,0.00,,2013-02-24 16:52:00,
2013-02-24 09:01:00,47.0,16.0,30.32,NNW,334,0.0,3.0,29,0.00,,,0.00,,2013-02-24 17:01:00,
2013-02-24 09:21:00,51.0,18.0,30.32,NE,45,2.0,5.0,27,0.00,,,0.00,,2013-02-24 17:21:00,
2013-02-24 09:31:00,52.0,19.0,30.32,NNE,30,2.0,5.0,27,0.00,,,0.00,,2013-02-24 17:31:00,
2013-02-24 09:41:00,52.0,19.0,30.32,NNE,30,2.0,5.0,27,0.00,,,0.00,,2013-02-24 17:41:00,
2013-02-24 09:52:00,53.0,16.0,30.32,NNE,33,0.0,5.0,23,0.00,,,0.00,,2013-02-24 17:52:00,
2013-02-24 10:01:00,55.0,12.0,30.32,NNE,18,0.0,6.0,18,0.00,,,0.00,,2013-02-24 18:01:00,
2013-02-24 10:21:00,58.0,9.0,30.31,NNE,33,2.0,8.0,14,0.00,,,0.00,,2013-02-24 18:21:00,
2013-02-24 10:31:00,58.0,9.0,30.31,NE,47,2.0,7.0,14,0.00,,,0.00,,2013-02-24 18:31:00,
2013-02-24 10:41:00,58.0,9.0,30.31,NE,47,2.0,7.0,14,0.00,,,0.00,,2013-02-24 18:41:00,
2013-02-24 10:52:00,60.0,7.0,30.31,NNW,341,5.0,8.0,12,0.00,,,0.00,,2013-02-24 18:52:00,
2013-02-24 11:01:00,60.0,7.0,30.31,NNE,14,2.0,9.0,12,0.00,,,0.00,,2013-02-24 19:01:00,
2013-02-24 11:21:00,61.0,6.0,30.31,NE,42,0.0,6.0,11,0.00,,,0.00,,2013-02-24 19:21:00,
2013-02-24 11:31:00,62.0,7.0,30.28,NE,34,3.0,7.0,11,0.00,,,0.00,,2013-02-24 19:31:00,
2013-02-24 11:41:00,62.0,7.0,30.28,NE,34,3.0,7.0,11,0.00,,,0.00,,2013-02-24 19:41:00,
2013-02-24 11:51:00,62.0,7.0,30.28,NW,319,4.0,8.0,11,0.00,,,0.00,,2013-02-24 19:51:00,
2013-02-24 12:01:00,63.0,8.0,30.28,WNW,285,3.0,8.0,11,0.00,,,0.00,,2013-02-24 20:01:00,
2013-02-24 12:21:00,64.0,8.0,30.28,ENE,62,3.0,7.0,11,0.00,,,0.00,,2013-02-24 20:21:00,
2013-02-24 12:31:00,64.0,8.0,30.28,NNW,340,0.0,8.0,11,0.00,,,0.00,,2013-02-24 20:31:00,
2013-02-24 12:41:00,64.0,8.0,30.28,NNW,340,0.0,8.0,11,0.00,,,0.00,,2013-02-24 20:41:00,
2013-02-24 12:52:00,65.0,7.0,30.28,NNE,21,4.0,8.0,10,0.00,,,0.00,,2013-02-24 20:52:00,
2013-02-24 13:01:00,66.0,8.0,30.25,NNE,24,3.0,9.0,10,0.00,,,0.00,,2013-02-24 21:01:00,
2013-02-24 13:21:00,66.0,8.0,30.25,North,357,4.0,8.0,10,0.00,,,0.00,,2013-02-24 21:21:00,
2013-02-24 13:31:00,67.0,9.0,30.25,NE,35,4.0,9.0,10,0.00,,,0.00,,2013-02-24 21:31:00,
2013-02-24 13:41:00,67.0,9.0,30.25,NE,35,4.0,9.0,10,0.00,,,0.00,,2013-02-24 21:41:00,
2013-02-24 13:52:00,67.0,9.0,30.25,SE,139,5.0,11.0,10,0.00,,,0.00,,2013-02-24 21:52:00,
2013-02-24 14:01:00,67.0,9.0,30.25,North,7,0.0,9.0,10,0.00,,,0.00,,2013-02-24 22:01:00,
2013-02-24 14:21:00,67.0,9.0,30.25,ENE,76,5.0,8.0,10,0.00,,,0.00,,2013-02-24 22:21:00,
2013-02-24 14:31:00,67.0,9.0,30.22,North,353,4.0,8.0,10,0.00,,,0.00,,2013-02-24 22:31:00,
2013-02-24 14:41:00,67.0,9.0,30.22,North,353,4.0,8.0,10,0.00,,,0.00,,2013-02-24 22:41:00,
2013-02-24 14:51:00,67.0,9.0,30.25,NW,321,5.0,8.0,10,0.00,,,0.00,,2013-02-24 22:51:00,
2013-02-24 15:01:00,67.0,9.0,30.25,NE,43,4.0,9.0,10,0.00,,,0.00,,2013-02-24 23:01:00,
2013-02-24 15:21:00,67.0,9.0,30.22,West,281,4.0,10.0,10,0.00,,,0.00,,2013-02-24 23:21:00,
2013-02-24 15:31:00,66.0,8.0,30.22,ENE,73,3.0,10.0,10,0.00,,,0.00,,2013-02-24 23:31:00,
2013-02-24 15:41:00,66.0,8.0,30.22,ENE,73,3.0,10.0,10,0.00,,,0.00,,2013-02-24 23:41:00,
2013-02-24 15:52:00,66.0,8.0,30.22,NNE,24,2.0,8.0,10,0.00,,,0.00,,2013-02-24 23:52:00,
2013-02-24 16:01:00,65.0,7.0,30.22,WSW,254,2.0,8.0,10,0.00,,,0.00,,2013-02-25 00:01:00,
2013-02-24 16:21:00,64.0,8.0,30.22,North,10,4.0,5.0,11,0.00,,,0.00,,2013-02-25 00:21:00,
2013-02-24 16:31:00,63.0,8.0,30.22,NNE,32,4.0,6.0,11,0.00,,,0.00,,2013-02-25 00:31:00,
2013-02-24 16:41:00,63.0,8.0,30.22,NNE,32,4.0,6.0,11,0.00,,,0.00,,2013-02-25 00:41:00,
2013-02-24 16:52:00,63.0,8.0,30.22,ENE,61,3.0,5.0,11,0.00,,,0.00,,2013-02-25 00:52:00,
2013-02-24 17:01:00,63.0,8.0,30.22,North,4,2.0,6.0,11,0.00,,,0.00,,2013-02-25 01:01:00,
2013-02-24 17:21:00,62.0,7.0,30.22,NW,314,0.0,3.0,11,0.00,,,0.00,,2013-02-25 01:21:00,
2013-02-24 17:31:00,60.0,7.0,30.22,SW,214,0.0,3.0,12,0.00,,,0.00,,2013-02-25 01:31:00,
2013-02-24 17:42:00,60.0,7.0,30.22,SW,214,0.0,3.0,12,0.00,,,0.00,,2013-02-25 01:42:00,
2013-02-24 17:52:00,58.0,6.0,30.22,SSW,208,0.0,0.0,12,0.00,,,0.00,,2013-02-25 01:52:00,
2013-02-24 18:01:00,55.0,8.0,30.22,SSW,208,0.0,0.0,15,0.00,,,0.00,,2013-02-25 02:01:00,
2013-02-24 18:21:00,55.0,8.0,30.23,SSW,208,0.0,0.0,15,0.00,,,0.00,,2013-02-25 02:21:00,
2013-02-24 18:31:00,52.0,10.0,30.23,SSW,212,0.0,0.0,18,0.00,,,0.00,,2013-02-25 02:31:00,
2013-02-24 18:41:00,52.0,10.0,30.23,SSW,212,0.0,0.0,18,0.00,,,0.00,,2013-02-25 02:41:00,
2013-02-24 18:52:00,50.0,12.0,30.23,SSW,212,0.0,0.0,21,0.00,,,0.00,,2013-02-25 02:52:00,
2013-02-24 19:01:00,49.0,16.0,30.23,SSW,212,0.0,0.0,26,0.00,,,0.00,,2013-02-25 03:01:00,
2013-02-24 19:21:00,48.0,16.0,30.23,SSW,212,0.0,0.0,27,0.00,,,0.00,,2013-02-25 03:21:00,
2013-02-24 19:31:00,47.0,16.0,30.23,SSW,212,0.0,0.0,28,0.00,,,0.00,,2013-02-25 03:31:00,
2013-02-24 19:41:00,47.0,16.0,30.23,SSW,212,0.0,0.0,28,0.00,,,0.00,,2013-02-25 03:41:00,
2013-02-24 19:51:00,47.0,16.0,30.23,SSW,212,0.0,0.0,28,0.00,,,0.00,,2013-02-25 03:51:00,
2013-02-24 20:01:00,46.0,16.0,30.23,SSW,212,0.0,0.0,30,0.00,,,0.00,,2013-02-25 04:01:00,
2013-02-24 20:21:00,45.0,17.0,30.23,SSW,212,0.0,0.0,32,0.00,,,0.00,,2013-02-25 04:21:00,
2013-02-24 20:31:00,44.0,17.0,30.26,SSW,212,0.0,0.0,34,0.00,,,0.00,,2013-02-25 04:31:00,
2013-02-24 20:41:00,44.0,17.0,30.26,SSW,212,0.0,0.0,34,0.00,,,0.00,,2013-02-25 04:41:00,
2013-02-24 20:52:00,44.0,18.0,30.26,SSW,212,0.0,0.0,35,0.00,,,0.00,,2013-02-25 04:52:00,
2013-02-24 21:01:00,43.0,19.0,30.26,SSW,212,0.0,0.0,37,0.00,,,0.00,,2013-02-25 05:01:00,
2013-02-24 21:11:00,43.0,19.0,30.26,SSW,212,0.0,0.0,37,0.00,,,0.00,,2013-02-25 05:11:00,
2013-02-24 21:22:00,42.0,18.0,30.26,SSW,212,0.0,0.0,38,0.00,,,0.00,,2013-02-25 05:22:00,
2013-02-24 21:31:00,42.0,18.0,30.26,SSW,212,0.0,0.0,38,0.00,,,0.00,,2013-02-25 05:31:00,
2013-02-24 21:41:00,42.0,18.0,30.26,SSW,212,0.0,0.0,38,0.00,,,0.00,,2013-02-25 05:41:00,
2013-02-24 21:52:00,42.0,19.0,30.29,SW,216,0.0,0.0,39,0.00,,,0.00,,2013-02-25 05:52:00,
2013-02-24 22:02:00,42.0,19.0,30.29,SW,216,0.0,0.0,39,0.00,,,0.00,,2013-02-25 06:02:00,
2013-02-24 22:21:00,41.0,18.0,30.29,SW,216,0.0,0.0,39,0.00,,,0.00,,2013-02-25 06:21:00,
2013-02-24 22:31:00,41.0,19.0,30.29,SW,216,0.0,0.0,40,0.00,,,0.00,,2013-02-25 06:31:00,
2013-02-24 22:41:00,41.0,19.0,30.29,SW,216,0.0,0.0,40,0.00,,,0.00,,2013-02-25 06:41:00,
2013-02-24 22:51:00,41.0,19.0,30.29,SW,216,0.0,0.0,40,0.00,,,0.00,,2013-02-25 06:51:00,
2013-02-24 23:01:00,40.0,19.0,30.29,SW,216,0.0,0.0,42,0.00,,,0.00,,2013-02-25 07:01:00,
2013-02-24 23:11:00,40.0,19.0,30.29,SW,216,0.0,0.0,42,0.00,,,0.00,,2013-02-25 07:11:00,
2013-02-24 23:21:00,40.0,19.0,30.29,SW,216,0.0,0.0,42,0.00,,,0.00,,2013-02-25 07:21:00,
2013-02-24 23:31:00,40.0,19.0,30.29,SW,216,0.0,0.0,43,0.00,,,0.00,,2013-02-25 07:31:00,
2013-02-24 23:41:00,40.0,19.0,30.29,SW,216,0.0,0.0,43,0.00,,,0.00,,2013-02-25 07:41:00,
2013-02-24 23:52:00,40.0,20.0,30.29,SW,216,0.0,0.0,44,0.00,,,0.00,,2013-02-25 07:52:00,